Portada
METAR-TAF:

METAR-TAF

Aeropuertos :

Aeropuerto Internacional Rey Husein

Aqaba, Jordania

latitud: 29-38N, longitud: 035-01E, altitud: 53 m

Observación

El informe se hizo hace 36 minutos, a las 11:00 UTC
Viento calma
Temperatura 34°C
Humedad 32%
Presión 1009 hPa
Visibilidad 10 km o más
sin nubes por debajo de 1500 m y sin presencia de cumulonimbus.

METAR: OJAQ 231100Z 00000KT CAVOK 34/15 Q1009 NOSIG

Hora: 14:36 (11:36 UTC)

Pronóstico

El informe se hizo hace 6 horas y 36 minutos, a las 05:00 UTC
Pronóstico válido del 23 a las 06 UTC al 24 a las 12 UTC
Viento 12 kt del norte
Visibilidad: 7000 m
Probabilidad 40% :
Temporalmente
del 23 a las 09 UTC al 23 a las 18 UTC
Viento 20 kt del norte
Visibilidad: 4000 m
Ventisca alta de polvo

TAF: OJAQ 230500Z 2306/2412 36012KT 7000 NSC PROB40 TEMPO 2309/2318 36020KT 4000 BLDU

Observaciones y pronósticos meteorológicos de más de 4000 aeropuertos (mensajes METAR y TAF).

Los puntos amarillos y rojos representan las estaciones disponibles.

Ponga el ratón en el punto deseado para ver el nombre de la estación.

Haga clic para ver las observaciones y los pronósticos meteorológicos.

Para cambiar el mapa : haga clic en los botones verdes con una cruz de color negro para hacer un zoom, en el botón verde con un guión para alejar o en las flechas verdes para mapas adyacentes.


METAR-TAF: